Edon, Ohio
Current Conditions -  °F | °C
As of 5:35 AM on Saturday 25 Oct 2014 (Local Time) from KANQ Reporting Station
Overcast Overcast  
Wind Chill: 50°   Ceiling: 4000
Heat Index: 50°   Visibility: 7mi
Dew Point: 46°   Wind: 0mph
Humidity: 87%   Direction: NA
Pressure: 29.88"   Gusts: NA
Location:  41.56°N, 84.77°W
Report Text: KANQ 250935Z AUTO 00000KT 7SM BKN040 OVC060 10/08 A2988 RMK
Loading
Personal Weather Stations






























Interactive Weather Map
Tropical Storm Tracking
New forecast layout! Learn more

10-Day Weather Forecast

Advertisements
Track Severe Weather on mobile